Terminal Aerodrome Forecast
Issued by NWS Twin Cities, MN

Home | Current Version | Previous Version | Graphics & Text | Print | Product List | Glossary On
Versions: 1 2 3 4 5 6 7 8 9 10 11 12 13 14 15 16 17 18 19
000
FTUS43 KMPX 242326
TAFEAU
TAF
KEAU 242326Z 2500/2524 14007KT P6SM FEW110
     FM251200 14007KT P6SM VCTS SCT050CB BKN090 PROB30 2512/2516
      -SHRA BKN040
     FM251600 16009KT P6SM SCT030 BKN050=

USA.gov is the U.S. government's official web portal to all federal, state and local government web resources and services.